createdAt,value
2022-09-24T00:01:42.222Z,99.90
2022-09-24T00:04:12.265Z,99.90
2022-09-24T00:06:41.170Z,99.90
2022-09-24T00:09:08.234Z,99.90
2022-09-24T00:11:35.580Z,99.90
2022-09-24T00:14:02.713Z,99.90
2022-09-24T00:16:31.593Z,99.90
2022-09-24T00:18:58.818Z,99.90
2022-09-24T00:21:29.567Z,99.90
2022-09-24T00:23:57.502Z,99.90
2022-09-24T00:26:42.875Z,99.90
2022-09-24T00:29:10.657Z,99.90
2022-09-24T00:31:37.572Z,99.90
2022-09-24T00:34:04.562Z,99.90
2022-09-24T00:36:31.835Z,99.90
2022-09-24T00:38:59.198Z,99.90
2022-09-24T00:41:28.061Z,99.90
2022-09-24T00:43:54.961Z,99.90
2022-09-24T00:46:26.801Z,99.90
2022-09-24T00:48:57.340Z,99.90
2022-09-24T00:51:25.297Z,99.90
2022-09-24T00:53:54.075Z,99.90
2022-09-24T00:56:22.165Z,97.30
2022-09-24T00:58:52.362Z,99.90
2022-09-24T01:01:23.062Z,99.90
2022-09-24T01:03:50.874Z,99.90
2022-09-24T01:06:17.493Z,99.90
2022-09-24T01:08:44.983Z,99.90
2022-09-24T01:11:36.478Z,88.20
2022-09-24T01:14:06.474Z,96.20
2022-09-24T01:16:56.438Z,87.50
2022-09-24T01:19:32.080Z,93.60
2022-09-24T01:22:02.721Z,94.50
2022-09-24T01:24:40.534Z,99.90
2022-09-24T01:27:25.956Z,99.90
2022-09-24T01:30:03.193Z,98.20
2022-09-24T01:32:38.166Z,90.40
2022-09-24T01:35:17.078Z,90.90
2022-09-24T01:37:45.921Z,91.50
2022-09-24T01:40:12.755Z,88.40
2022-09-24T01:42:42.418Z,87.00
2022-09-24T01:45:09.519Z,87.90
2022-09-24T01:47:40.155Z,85.40
2022-09-24T01:50:08.977Z,92.00
2022-09-24T01:52:40.603Z,82.30
2022-09-24T01:55:08.580Z,83.40
2022-09-24T01:57:39.120Z,87.90
2022-09-24T02:00:09.865Z,90.50
2022-09-24T02:02:45.504Z,77.40
2022-09-24T02:05:12.840Z,63.60
2022-09-24T02:07:42.771Z,99.90
2022-09-24T02:10:16.485Z,99.90
2022-09-24T02:12:44.373Z,99.90
2022-09-24T02:15:13.490Z,98.40
2022-09-24T02:17:42.950Z,99.90
2022-09-24T02:20:12.946Z,99.90
2022-09-24T02:22:40.075Z,99.90
2022-09-24T02:25:09.002Z,99.90
2022-09-24T02:27:35.816Z,99.90
2022-09-24T02:30:02.567Z,99.90
2022-09-24T02:32:31.304Z,90.60
2022-09-24T02:35:03.242Z,99.90
2022-09-24T02:37:34.165Z,99.90
2022-09-24T02:40:01.168Z,99.90
2022-09-24T02:42:27.901Z,99.90
2022-09-24T02:44:57.473Z,99.90
2022-09-24T02:47:24.210Z,99.90
2022-09-24T02:49:50.965Z,99.90
2022-09-24T02:52:18.787Z,99.90
2022-09-24T02:54:45.427Z,99.50
2022-09-24T02:57:12.023Z,99.90
2022-09-24T02:59:38.624Z,99.90
2022-09-24T03:02:05.809Z,99.90
2022-09-24T03:04:32.575Z,99.90
2022-09-24T03:06:59.410Z,99.90
2022-09-24T03:09:26.400Z,99.90
2022-09-24T03:11:53.030Z,99.90
2022-09-24T03:14:19.663Z,99.90
2022-09-24T03:16:46.335Z,99.90
2022-09-24T03:19:13.048Z,99.90
2022-09-24T03:21:39.690Z,99.90
2022-09-24T03:24:06.505Z,99.90
2022-09-24T03:26:33.238Z,99.90
2022-09-24T03:28:59.845Z,99.90
2022-09-24T03:31:26.646Z,99.90
2022-09-24T03:33:53.359Z,99.90
2022-09-24T03:36:24.530Z,99.90
2022-09-24T03:38:57.770Z,99.90
2022-09-24T03:41:27.732Z,99.90
2022-09-24T03:43:54.675Z,99.90
2022-09-24T03:46:22.075Z,99.90
2022-09-24T03:48:49.199Z,99.90
2022-09-24T03:51:18.831Z,99.90
2022-09-24T03:53:46.051Z,99.90
2022-09-24T03:56:13.000Z,99.90
2022-09-24T03:58:40.038Z,99.90
2022-09-24T04:01:07.229Z,99.90
2022-09-24T04:03:34.271Z,99.90
2022-09-24T04:06:00.895Z,99.90
2022-09-24T04:08:27.741Z,99.90
2022-09-24T04:10:55.491Z,99.90
2022-09-24T04:13:22.257Z,99.90
2022-09-24T04:15:50.494Z,99.90
2022-09-24T04:18:17.430Z,99.90
2022-09-24T04:20:44.194Z,99.90
2022-09-24T04:23:11.299Z,99.90
2022-09-24T04:25:38.204Z,99.90
2022-09-24T04:28:06.321Z,99.90
2022-09-24T04:30:34.059Z,98.90
2022-09-24T04:33:01.094Z,93.40
2022-09-24T04:35:30.002Z,99.90
2022-09-24T04:37:57.283Z,99.90
2022-09-24T04:40:24.005Z,99.90
2022-09-24T04:42:50.747Z,79.50
2022-09-24T04:45:19.354Z,99.50
2022-09-24T04:47:57.190Z,99.90
2022-09-24T04:50:25.034Z,90.90
2022-09-24T04:52:51.764Z,98.30
2022-09-24T04:55:20.765Z,99.90
2022-09-24T04:57:47.657Z,96.50
2022-09-24T05:00:15.522Z,99.90
2022-09-24T05:02:42.449Z,99.50
2022-09-24T05:05:09.386Z,95.50
2022-09-24T05:07:36.438Z,99.90
2022-09-24T05:10:03.539Z,95.70
2022-09-24T05:12:30.201Z,99.90
2022-09-24T05:14:56.830Z,95.70
2022-09-24T05:17:23.489Z,99.70
2022-09-24T05:19:50.236Z,99.90
2022-09-24T05:22:16.873Z,98.00
2022-09-24T05:24:43.474Z,94.70
2022-09-24T05:27:10.393Z,85.10
2022-09-24T05:29:37.249Z,99.90
2022-09-24T05:32:05.640Z,99.90
2022-09-24T05:34:32.972Z,99.90
2022-09-24T05:37:00.222Z,99.90
2022-09-24T05:39:32.841Z,99.90
2022-09-24T05:42:01.865Z,99.90
2022-09-24T05:44:28.544Z,99.90
2022-09-24T05:46:55.225Z,94.90
2022-09-24T05:49:21.913Z,99.90
2022-09-24T05:51:49.980Z,99.90
2022-09-24T05:54:17.286Z,99.90
2022-09-24T05:56:44.175Z,99.90
2022-09-24T05:59:11.003Z,99.90
2022-09-24T06:01:37.849Z,99.90
2022-09-24T06:04:08.567Z,99.90
2022-09-24T06:06:36.307Z,99.90
2022-09-24T06:09:03.379Z,99.90
2022-09-24T06:11:40.011Z,99.90
2022-09-24T06:14:06.997Z,99.90
2022-09-24T06:16:34.307Z,99.90
2022-09-24T06:19:01.591Z,99.90
2022-09-24T06:21:28.308Z,99.90
2022-09-24T06:23:54.974Z,99.90
2022-09-24T06:26:21.736Z,99.90
2022-09-24T06:28:48.364Z,99.90
2022-09-24T06:31:15.234Z,99.90
2022-09-24T06:33:42.540Z,99.90
2022-09-24T06:36:09.276Z,99.90
2022-09-24T06:38:36.673Z,99.90
2022-09-24T06:41:05.144Z,99.90
2022-09-24T06:43:32.544Z,99.90
2022-09-24T06:45:59.679Z,99.90
2022-09-24T06:48:27.042Z,99.90
2022-09-24T06:50:54.885Z,99.90
2022-09-24T06:53:21.559Z,99.90
2022-09-24T06:55:48.947Z,99.90
2022-09-24T06:58:17.131Z,99.90
2022-09-24T07:00:50.020Z,99.90
2022-09-24T07:03:16.783Z,99.90
2022-09-24T07:05:44.120Z,99.90
2022-09-24T07:08:11.309Z,99.90
2022-09-24T07:10:42.258Z,99.90
2022-09-24T07:13:08.938Z,99.90
2022-09-24T07:15:35.733Z,99.90
2022-09-24T07:18:02.431Z,99.90
2022-09-24T07:20:29.095Z,91.40
2022-09-24T07:22:56.238Z,99.90
2022-09-24T07:25:22.935Z,99.90
2022-09-24T07:27:49.697Z,98.90
2022-09-24T07:30:16.701Z,99.90
2022-09-24T07:32:43.831Z,99.90
2022-09-24T07:35:10.499Z,99.90
2022-09-24T07:37:37.527Z,99.90
2022-09-24T07:40:04.251Z,82.70
2022-09-24T07:42:30.969Z,80.00
2022-09-24T07:44:57.809Z,59.00
2022-09-24T07:47:24.681Z,82.30
2022-09-24T07:49:51.337Z,65.70
2022-09-24T07:52:18.584Z,54.30
2022-09-24T07:54:45.246Z,65.60
2022-09-24T07:57:13.635Z,71.50
2022-09-24T07:59:40.762Z,89.70
2022-09-24T08:02:14.205Z,71.00
2022-09-24T08:04:40.831Z,65.70
2022-09-24T08:07:07.467Z,84.70
2022-09-24T08:09:35.277Z,83.10
2022-09-24T08:12:02.125Z,75.20
2022-09-24T08:14:29.189Z,65.70
2022-09-24T08:16:55.832Z,71.50
2022-09-24T08:19:22.442Z,60.60
2022-09-24T08:21:49.162Z,65.40
2022-09-24T08:24:24.814Z,57.50
2022-09-24T08:26:51.424Z,91.80
2022-09-24T08:29:21.222Z,72.30
2022-09-24T08:31:50.852Z,90.50
2022-09-24T08:34:19.773Z,81.80
2022-09-24T08:36:46.388Z,99.90
2022-09-24T08:39:13.763Z,80.00
2022-09-24T08:41:55.367Z,78.40
2022-09-24T08:45:00.915Z,89.80
2022-09-24T08:47:48.278Z,99.90
2022-09-24T08:50:23.430Z,99.90
2022-09-24T08:53:14.461Z,99.90
2022-09-24T08:55:43.312Z,99.90
2022-09-24T08:58:26.448Z,74.50
2022-09-24T09:00:59.091Z,92.30
2022-09-24T09:03:48.355Z,98.30
2022-09-24T09:06:17.708Z,99.90
2022-09-24T09:09:07.738Z,99.90
2022-09-24T09:11:35.601Z,99.90
2022-09-24T09:14:10.749Z,99.90
2022-09-24T09:16:44.318Z,99.90
2022-09-24T09:19:13.300Z,99.90
2022-09-24T09:21:47.373Z,99.90
2022-09-24T09:24:18.630Z,99.90
2022-09-24T09:26:50.618Z,95.70
2022-09-24T09:29:17.565Z,99.90
2022-09-24T09:31:56.293Z,99.80
2022-09-24T09:34:25.960Z,99.90
2022-09-24T09:36:55.970Z,99.90
2022-09-24T09:39:41.632Z,99.90
2022-09-24T09:42:15.030Z,99.90
2022-09-24T09:44:42.880Z,99.90
2022-09-24T09:47:30.591Z,88.90
2022-09-24T09:49:58.354Z,99.90
2022-09-24T09:52:28.936Z,99.90
2022-09-24T09:54:55.951Z,99.90
2022-09-24T09:57:24.063Z,99.90
2022-09-24T09:59:55.008Z,91.30
2022-09-24T10:02:30.330Z,49.60
2022-09-24T10:05:06.483Z,66.00
2022-09-24T10:07:43.999Z,92.20
2022-09-24T10:10:18.972Z,88.90
2022-09-24T10:12:46.000Z,84.30
2022-09-24T10:15:17.165Z,90.00
2022-09-24T10:17:47.343Z,82.00
2022-09-24T10:20:13.981Z,80.70
2022-09-24T10:22:45.797Z,83.80
2022-09-24T10:25:26.382Z,93.70
2022-09-24T10:28:15.887Z,99.90
2022-09-24T10:30:57.271Z,68.30
2022-09-24T10:33:24.315Z,98.10
2022-09-24T10:35:51.380Z,46.90
2022-09-24T10:38:19.478Z,75.20
2022-09-24T10:40:46.847Z,55.00
2022-09-24T10:43:20.879Z,29.00
2022-09-24T10:46:07.882Z,51.00
2022-09-24T10:48:39.080Z,53.40
2022-09-24T10:51:08.676Z,51.50
2022-09-24T10:53:58.954Z,55.50
2022-09-24T10:56:36.236Z,62.20
2022-09-24T10:59:10.972Z,78.10
2022-09-24T11:02:16.390Z,99.90
2022-09-24T11:04:47.396Z,99.90
2022-09-24T11:07:30.503Z,99.90
2022-09-24T11:10:26.566Z,99.90
2022-09-24T11:13:07.329Z,99.90
2022-09-24T11:15:34.033Z,99.90
2022-09-24T11:18:10.111Z,99.90
2022-09-24T11:20:38.389Z,99.90
2022-09-24T11:23:11.047Z,99.90
2022-09-24T11:25:51.368Z,99.90
2022-09-24T11:28:32.796Z,99.90
2022-09-24T11:31:22.552Z,99.90
2022-09-24T11:34:08.457Z,98.90
2022-09-24T11:36:50.083Z,99.90
2022-09-24T11:39:20.060Z,99.90
2022-09-24T11:41:55.434Z,99.90
2022-09-24T11:44:28.428Z,99.90
2022-09-24T11:47:13.459Z,99.90
2022-09-24T11:49:58.878Z,99.90
2022-09-24T11:52:47.766Z,99.90
2022-09-24T11:55:20.990Z,94.30
2022-09-24T11:57:56.671Z,97.80
2022-09-24T12:00:28.389Z,80.70
2022-09-24T12:03:15.382Z,99.90
2022-09-24T12:05:46.907Z,99.90
2022-09-24T12:08:17.662Z,99.90
2022-09-24T12:10:52.676Z,99.90
2022-09-24T12:13:22.561Z,99.90
2022-09-24T12:15:56.632Z,99.90
2022-09-24T12:18:28.959Z,99.90
2022-09-24T12:21:01.663Z,99.90
2022-09-24T12:23:30.296Z,97.20
2022-09-24T12:26:03.049Z,93.90
2022-09-24T12:28:51.470Z,96.70
2022-09-24T12:32:12.047Z,94.10
2022-09-24T12:34:47.536Z,92.50
2022-09-24T12:37:16.908Z,96.90
2022-09-24T12:39:48.018Z,99.90
2022-09-24T12:42:15.524Z,91.10
2022-09-24T12:44:51.478Z,99.90
2022-09-24T12:47:23.982Z,99.90
2022-09-24T12:49:52.752Z,99.90
2022-09-24T12:52:25.067Z,99.30
2022-09-24T12:54:56.832Z,91.20
2022-09-24T12:57:26.313Z,93.50
2022-09-24T12:59:54.294Z,99.90
2022-09-24T13:02:23.885Z,99.90
2022-09-24T13:05:02.855Z,99.90
2022-09-24T13:07:36.768Z,99.90
2022-09-24T13:10:18.555Z,99.90
2022-09-24T13:12:45.417Z,99.90
2022-09-24T13:15:28.343Z,99.90
2022-09-24T13:18:07.780Z,99.90
2022-09-24T13:20:36.208Z,99.90
2022-09-24T13:23:23.279Z,99.90
2022-09-24T13:25:57.415Z,99.90
2022-09-24T13:28:37.898Z,99.90
2022-09-24T13:31:25.444Z,99.90
2022-09-24T13:34:12.779Z,99.90
2022-09-24T13:36:43.864Z,99.90
2022-09-24T13:39:19.000Z,99.90
2022-09-24T13:41:48.544Z,99.90
2022-09-24T13:44:18.320Z,99.90
2022-09-24T13:46:46.107Z,99.90
2022-09-24T13:49:17.737Z,99.90
2022-09-24T13:51:46.084Z,99.90
2022-09-24T13:54:23.293Z,99.90
2022-09-24T13:57:10.448Z,99.90
2022-09-24T13:59:37.585Z,99.90
2022-09-24T14:02:04.409Z,99.90
2022-09-24T14:04:31.266Z,99.90
2022-09-24T14:06:58.572Z,99.90
2022-09-24T14:09:28.785Z,99.90
2022-09-24T14:11:56.707Z,99.90
2022-09-24T14:14:24.741Z,99.90
2022-09-24T14:16:55.125Z,99.90
2022-09-24T14:19:23.370Z,99.90
2022-09-24T14:21:52.494Z,99.90
2022-09-24T14:24:19.079Z,99.90
2022-09-24T14:26:52.038Z,99.90
2022-09-24T14:29:29.658Z,99.90
2022-09-24T14:31:58.461Z,99.90
2022-09-24T14:34:35.783Z,99.90
2022-09-24T14:37:08.629Z,99.90
2022-09-24T14:39:37.784Z,99.90
2022-09-24T14:42:09.526Z,99.90
2022-09-24T14:44:38.559Z,99.90
2022-09-24T14:47:05.339Z,99.90
2022-09-24T14:49:43.034Z,99.90
2022-09-24T14:52:30.975Z,99.90
2022-09-24T14:55:17.632Z,99.90
2022-09-24T14:57:48.953Z,99.90
2022-09-24T15:00:26.789Z,99.90
2022-09-24T15:02:53.486Z,99.90
2022-09-24T15:05:23.302Z,99.90
2022-09-24T15:07:50.116Z,99.90
2022-09-24T15:10:22.158Z,99.90
2022-09-24T15:12:49.597Z,99.90
2022-09-24T15:15:20.835Z,99.90
2022-09-24T15:17:47.818Z,99.90
2022-09-24T15:20:14.678Z,99.90
2022-09-24T15:22:41.322Z,99.90
2022-09-24T15:25:08.126Z,99.90
2022-09-24T15:27:38.057Z,99.90
2022-09-24T15:30:07.157Z,99.90
2022-09-24T15:32:36.117Z,99.90
2022-09-24T15:35:08.315Z,99.90
2022-09-24T15:37:38.311Z,99.90
2022-09-24T15:40:07.244Z,99.90
2022-09-24T15:42:34.091Z,99.90
2022-09-24T15:45:00.726Z,99.90
2022-09-24T15:47:27.546Z,99.90
2022-09-24T15:49:54.287Z,99.90
2022-09-24T15:52:26.077Z,99.90
2022-09-24T15:55:00.184Z,99.90
2022-09-24T15:57:26.957Z,99.90
2022-09-24T15:59:53.979Z,99.90
2022-09-24T16:02:26.943Z,99.90
2022-09-24T16:04:53.592Z,99.90
2022-09-24T16:07:20.408Z,99.90
2022-09-24T16:09:47.460Z,99.90
2022-09-24T16:12:15.159Z,99.90
2022-09-24T16:14:41.826Z,99.90
2022-09-24T16:17:08.503Z,99.90
2022-09-24T16:19:35.154Z,99.90
2022-09-24T16:22:01.857Z,99.90
2022-09-24T16:24:31.811Z,99.90
2022-09-24T16:26:59.343Z,99.90
2022-09-24T16:29:26.276Z,99.90
2022-09-24T16:31:52.905Z,99.90
2022-09-24T16:34:19.856Z,99.90
2022-09-24T16:36:46.910Z,99.90
2022-09-24T16:39:15.770Z,99.90
2022-09-24T16:41:42.434Z,99.90
2022-09-24T16:44:10.772Z,99.90
2022-09-24T16:46:37.433Z,99.90
2022-09-24T16:49:04.121Z,99.90
2022-09-24T16:51:31.036Z,99.90
2022-09-24T16:53:57.765Z,99.90
2022-09-24T16:56:24.752Z,99.90
2022-09-24T16:58:51.538Z,99.90
2022-09-24T17:01:19.409Z,99.90
2022-09-24T17:03:53.198Z,99.90
2022-09-24T17:06:23.982Z,99.90
2022-09-24T17:09:09.374Z,99.90
2022-09-24T17:11:36.668Z,99.90
2022-09-24T17:14:03.521Z,99.90
2022-09-24T17:16:30.417Z,99.90
2022-09-24T17:18:57.405Z,99.90
2022-09-24T17:21:24.020Z,99.90
2022-09-24T17:23:50.939Z,99.90
2022-09-24T17:26:19.102Z,99.90
2022-09-24T17:28:46.423Z,99.90
2022-09-24T17:31:14.780Z,99.90
2022-09-24T17:33:44.782Z,99.90
2022-09-24T17:36:12.719Z,99.90
2022-09-24T17:38:39.440Z,99.90
2022-09-24T17:41:07.308Z,99.90
2022-09-24T17:43:34.458Z,99.90
2022-09-24T17:46:03.453Z,99.90
2022-09-24T17:48:38.164Z,99.90
2022-09-24T17:51:10.474Z,99.90
2022-09-24T17:53:37.527Z,99.90
2022-09-24T17:56:05.347Z,99.90
2022-09-24T17:58:32.844Z,99.90
2022-09-24T18:01:03.795Z,99.90
2022-09-24T18:03:30.397Z,99.90
2022-09-24T18:06:01.169Z,99.90
2022-09-24T18:08:27.852Z,99.90
2022-09-24T18:11:14.022Z,99.90
2022-09-24T18:13:40.906Z,99.90
2022-09-24T18:16:09.030Z,99.90
2022-09-24T18:18:36.075Z,99.90
2022-09-24T18:21:03.681Z,99.90
2022-09-24T18:23:30.779Z,99.90
2022-09-24T18:26:07.667Z,99.90
2022-09-24T18:28:34.316Z,99.90
2022-09-24T18:31:04.845Z,99.90
2022-09-24T18:33:32.630Z,99.90
2022-09-24T18:36:03.107Z,99.90
2022-09-24T18:38:31.826Z,99.90
2022-09-24T18:40:59.448Z,99.90
2022-09-24T18:43:26.492Z,99.90
2022-09-24T18:45:53.701Z,99.90
2022-09-24T18:48:20.339Z,99.90
2022-09-24T18:50:47.083Z,99.90
2022-09-24T18:53:13.701Z,99.90
2022-09-24T18:55:41.780Z,99.90
2022-09-24T18:58:10.975Z,99.90
2022-09-24T19:00:50.876Z,99.90
2022-09-24T19:03:18.833Z,99.90
2022-09-24T19:05:47.728Z,99.90
2022-09-24T19:08:15.132Z,99.90
2022-09-24T19:10:41.975Z,99.90
2022-09-24T19:13:08.606Z,99.90
2022-09-24T19:15:36.421Z,99.90
2022-09-24T19:18:03.680Z,99.90
2022-09-24T19:20:30.963Z,99.90
2022-09-24T19:23:00.708Z,99.90
2022-09-24T19:25:28.119Z,99.90
2022-09-24T19:27:55.247Z,99.90
2022-09-24T19:30:22.555Z,99.90
2022-09-24T19:32:49.183Z,99.90
2022-09-24T19:35:16.079Z,99.90
2022-09-24T19:37:43.345Z,99.90
2022-09-24T19:40:10.366Z,99.90
2022-09-24T19:42:37.384Z,99.90
2022-09-24T19:45:05.286Z,99.90
2022-09-24T19:47:32.966Z,99.90
2022-09-24T19:49:59.805Z,99.90
2022-09-24T19:52:26.561Z,99.90
2022-09-24T19:54:53.254Z,99.90
2022-09-24T19:57:20.194Z,99.90
2022-09-24T19:59:46.827Z,99.90
2022-09-24T20:02:14.158Z,99.90
2022-09-24T20:04:42.007Z,99.90
2022-09-24T20:07:08.668Z,99.90
2022-09-24T20:09:35.394Z,99.90
2022-09-24T20:12:02.173Z,99.90
2022-09-24T20:14:32.860Z,99.90
2022-09-24T20:17:00.799Z,99.90
2022-09-24T20:19:27.509Z,99.90
2022-09-24T20:21:57.478Z,99.90
2022-09-24T20:24:24.170Z,99.90
2022-09-24T20:27:09.731Z,99.90
2022-09-24T20:29:37.217Z,99.90
2022-09-24T20:32:04.174Z,99.90
2022-09-24T20:34:34.201Z,99.90
2022-09-24T20:37:01.826Z,99.90
2022-09-24T20:39:29.154Z,99.90
2022-09-24T20:41:56.480Z,99.90
2022-09-24T20:44:25.224Z,99.90
2022-09-24T20:46:52.145Z,99.90
2022-09-24T20:49:22.969Z,99.90
2022-09-24T20:51:57.002Z,99.90
2022-09-24T20:54:24.748Z,99.90
2022-09-24T20:56:51.849Z,99.90
2022-09-24T20:59:18.635Z,99.90
2022-09-24T21:01:45.802Z,99.90
2022-09-24T21:04:12.740Z,99.90
2022-09-24T21:06:39.442Z,99.90
2022-09-24T21:09:06.181Z,99.90
2022-09-24T21:11:33.368Z,99.90
2022-09-24T21:14:03.358Z,99.90
2022-09-24T21:16:31.338Z,99.90
2022-09-24T21:18:58.713Z,99.90
2022-09-24T21:21:26.986Z,99.90
2022-09-24T21:23:54.526Z,99.90
2022-09-24T21:26:25.504Z,99.90
2022-09-24T21:28:53.896Z,99.90
2022-09-24T21:31:21.616Z,99.90
2022-09-24T21:33:49.153Z,99.90
2022-09-24T21:36:19.455Z,99.90
2022-09-24T21:39:07.287Z,99.90
2022-09-24T21:41:35.319Z,99.90
2022-09-24T21:44:04.643Z,99.90
2022-09-24T21:46:32.220Z,99.90
2022-09-24T21:48:59.388Z,99.90
2022-09-24T21:51:29.387Z,99.90
2022-09-24T21:53:58.371Z,99.90
2022-09-24T21:56:25.093Z,99.90
2022-09-24T21:58:53.339Z,99.90
2022-09-24T22:01:20.237Z,99.90
2022-09-24T22:03:47.211Z,99.90
2022-09-24T22:06:14.471Z,99.90
2022-09-24T22:08:41.197Z,99.90
2022-09-24T22:11:08.908Z,99.90
2022-09-24T22:13:39.012Z,99.90
2022-09-24T22:16:07.667Z,99.90
2022-09-24T22:18:34.318Z,99.90
2022-09-24T22:21:05.778Z,99.90
2022-09-24T22:23:32.522Z,99.90
2022-09-24T22:25:59.273Z,99.90
2022-09-24T22:28:26.571Z,99.90
2022-09-24T22:30:55.239Z,99.90
2022-09-24T22:33:41.025Z,99.90
2022-09-24T22:36:07.950Z,99.90
2022-09-24T22:38:34.935Z,99.90
2022-09-24T22:41:05.434Z,99.90
2022-09-24T22:43:32.855Z,99.90
2022-09-24T22:46:00.109Z,99.90
2022-09-24T22:48:27.240Z,99.90
2022-09-24T22:50:54.165Z,99.90
2022-09-24T22:53:20.938Z,99.90
2022-09-24T22:55:52.341Z,99.90
2022-09-24T22:58:19.457Z,99.90
2022-09-24T23:00:46.091Z,99.90
2022-09-24T23:03:12.695Z,99.90
2022-09-24T23:05:39.401Z,99.90
2022-09-24T23:08:06.022Z,99.90
2022-09-24T23:10:32.655Z,99.90
2022-09-24T23:12:59.280Z,99.90
2022-09-24T23:15:26.017Z,99.90
2022-09-24T23:17:52.984Z,99.90
2022-09-24T23:20:19.628Z,99.90
2022-09-24T23:22:46.578Z,99.90
2022-09-24T23:25:13.195Z,99.90
2022-09-24T23:27:39.848Z,99.90
2022-09-24T23:30:06.796Z,99.90
2022-09-24T23:32:33.425Z,99.90
2022-09-24T23:35:00.157Z,99.90
2022-09-24T23:37:26.812Z,99.90
2022-09-24T23:39:53.499Z,99.90
2022-09-24T23:42:20.419Z,99.90
2022-09-24T23:44:48.688Z,99.90
2022-09-24T23:47:15.323Z,99.90
2022-09-24T23:49:41.963Z,99.90
2022-09-24T23:52:08.714Z,99.90
2022-09-24T23:54:40.290Z,99.90
2022-09-24T23:57:07.508Z,99.90
2022-09-24T23:59:34.684Z,99.90
